Depeyster, New York
Current Conditions -  °F | °C
As of 12:58 PM on Friday 28 Nov 2014 (Local Time) from KGTB Reporting Station
Broken Clouds Broken Clouds  
Wind Chill: 17°   Ceiling: 3400
Heat Index: 24°   Visibility: 10mi
Dew Point: 15°   Wind: 6mph
Humidity: 68%   Direction: NA
Pressure: 30.13"   Gusts: NA
Location:  44.5526°N, 75.4348°W
Report Text: KGTB 281758Z AUTO VRB05KT 10SM SCT027 BKN034 M05/M10 A3013 RMK AO2 CIG 023 RWY03 SLP214 60000 T10461097 11040 21095 57008
Loading
Personal Weather Stations






























Interactive Weather Map New forecast layout! Learn more

10-Day Weather Forecast

Advertisements
Track Severe Weather on mobile